Beloeil, Canada
Current Conditions -  °F | °C
As of 11:00 PM on Sunday 25 Jan 2015 (Local Time) from CYHU Reporting Station
Clear Clear  
Wind Chill: -10°   Ceiling: Unl
Heat Index:   Visibility: 9mi
Dew Point: -8°   Wind: 10mph
Humidity: 56%   Direction: 290°WNW
Pressure: 30.13"   Gusts: NA
Location:  45.57°N, 73.2°W
Report Text: CYHU 260400Z AUTO 29009KT 9SM CLR M15/M22 A3013 RMK SLP205
Loading
Personal Weather Stations






























Interactive Weather Map New forecast layout! Learn more

10-Day Weather Forecast

Advertisements
Track Severe Weather on mobile